Estación Meteorológica Peña el Pijo (Robertgarden) [ 01/30/23 15:02:48 CET ]

Fecha Hora Presion(HPa) Temp (°C) Humedad % Rocio (°C) Viento ( m/s) Direccion Lluvia 1Hora(mm) Lluvia 24H(mm) LLuvia Total(mm)
2010-Dec-02 01:01:12 999.200 2.2 79 -1.1         9.32
2010-Dec-02 02:03:20 999.300 1.6 82 -1.2         9.32
2010-Dec-02 03:01:16 999.200 1.6 85 -0.7         9.32
2010-Dec-02 04:01:14 998.800 2.5 83 -0.1         9.32
2010-Dec-02 05:01:15 998.500 1.8 84 -0.7         9.32
2010-Dec-02 06:01:13 998.400 2.2 87 0.2         9.32
2010-Dec-02 07:01:13 998.900 2.2 89 0.5         9.32
2010-Dec-02 08:01:13 999.700 1.3 90 -0.2         9.32
2010-Dec-02 09:01:12 1000.000 1.1 91 -0.2         9.32
2010-Dec-02 10:01:11 1000.400 2.6 93 1.6         9.32
2010-Dec-02 11:01:13 1001.300 4.5 89 2.8         9.32
2010-Dec-02 12:01:13 1001.400 6.0 81 3.0         9.32
2010-Dec-02 13:01:12 1001.000 6.8 69 1.5         9.32
2010-Dec-02 14:01:13 1000.300 5.6 70 0.6         9.32
2010-Dec-02 15:01:11 1000.200 8.3 57 0.2         9.32
2010-Dec-02 16:01:17 1000.600 6.4 59 -1.1 1.0 SSE     9.32
2010-Dec-02 17:01:17 1000.900 3.8 64 -2.4         9.32
2010-Dec-02 18:01:12 1001.300 2.9 63 -3.5         9.32
2010-Dec-02 19:01:15 1002.200 2.4 63 -3.9         9.32
2010-Dec-02 20:01:18 1002.800 1.8 63 -4.5 1.1 NE     9.32
2010-Dec-02 21:01:18 1003.200 1.3 64 -4.8         9.32
2010-Dec-02 22:01:11 1003.200 0.8 69 -4.3 1.8 S     9.32
2010-Dec-02 23:01:13 1003.400 0.4 68 -4.8 1.0 ESE     9.32

Temperatura Máxima:    Temperatura Mínima:
Presión Máxima:1003.400 Hpa    Presión Mínima:998.400 Hpa


Volver